sensor_id;sensor_type;location;lat;lon;timestamp;pressure;altitude;pressure_sealevel;temperature;humidity
21182;BME280;10749;46.296;7.524;2023-05-11T00:02:14;94732.56;;;13.04;44.37
21182;BME280;10749;46.296;7.524;2023-05-11T00:04:40;94736.00;;;12.98;44.33
21182;BME280;10749;46.296;7.524;2023-05-11T00:07:05;94733.16;;;12.99;44.61
21182;BME280;10749;46.296;7.524;2023-05-11T00:09:30;94724.97;;;13.01;44.45
21182;BME280;10749;46.296;7.524;2023-05-11T00:11:56;94732.16;;;13.00;44.54
21182;BME280;10749;46.296;7.524;2023-05-11T00:14:21;94730.47;;;12.92;44.91
21182;BME280;10749;46.296;7.524;2023-05-11T00:16:47;94731.88;;;12.88;45.03
21182;BME280;10749;46.296;7.524;2023-05-11T00:19:12;94732.09;;;12.93;44.89
21182;BME280;10749;46.296;7.524;2023-05-11T00:21:37;94726.59;;;12.95;44.50
21182;BME280;10749;46.296;7.524;2023-05-11T00:24:02;94729.25;;;12.95;43.78
21182;BME280;10749;46.296;7.524;2023-05-11T00:26:28;94729.44;;;12.93;43.72
21182;BME280;10749;46.296;7.524;2023-05-11T00:28:53;94721.88;;;12.90;44.64
21182;BME280;10749;46.296;7.524;2023-05-11T00:31:18;94720.28;;;12.96;44.43
21182;BME280;10749;46.296;7.524;2023-05-11T00:33:44;94714.16;;;12.95;44.60
21182;BME280;10749;46.296;7.524;2023-05-11T00:36:09;94716.16;;;12.93;44.95
21182;BME280;10749;46.296;7.524;2023-05-11T00:38:35;94714.34;;;12.94;45.15
21182;BME280;10749;46.296;7.524;2023-05-11T00:41:04;94714.56;;;12.99;45.12
21182;BME280;10749;46.296;7.524;2023-05-11T00:43:29;94713.34;;;13.02;45.10
21182;BME280;10749;46.296;7.524;2023-05-11T00:45:55;94711.31;;;13.04;45.50
21182;BME280;10749;46.296;7.524;2023-05-11T00:48:20;94715.59;;;13.05;45.09
21182;BME280;10749;46.296;7.524;2023-05-11T00:50:45;94706.44;;;13.07;44.44
21182;BME280;10749;46.296;7.524;2023-05-11T00:53:12;94709.69;;;13.09;43.88
21182;BME280;10749;46.296;7.524;2023-05-11T00:55:37;94709.34;;;13.12;44.27
21182;BME280;10749;46.296;7.524;2023-05-11T00:58:03;94701.16;;;13.14;44.62
21182;BME280;10749;46.296;7.524;2023-05-11T01:00:30;94701.78;;;13.16;45.25
21182;BME280;10749;46.296;7.524;2023-05-11T01:02:55;94697.91;;;13.18;45.28
21182;BME280;10749;46.296;7.524;2023-05-11T01:05:24;94700.56;;;13.18;45.70
21182;BME280;10749;46.296;7.524;2023-05-11T01:08:07;94696.72;;;13.21;44.29
21182;BME280;10749;46.296;7.524;2023-05-11T01:10:48;94695.06;;;13.20;44.70
21182;BME280;10749;46.296;7.524;2023-05-11T01:13:32;94692.19;;;13.21;44.25
21182;BME280;10749;46.296;7.524;2023-05-11T01:16:02;94696.06;;;13.19;43.79
21182;BME280;10749;46.296;7.524;2023-05-11T01:19:04;94687.69;;;13.15;43.39
21182;BME280;10749;46.296;7.524;2023-05-11T01:21:31;94686.38;;;13.05;43.60
21182;BME280;10749;46.296;7.524;2023-05-11T01:24:11;94693.75;;;13.03;43.79
21182;BME280;10749;46.296;7.524;2023-05-11T01:29:57;94699.50;;;13.13;44.80
21182;BME280;10749;46.296;7.524;2023-05-11T01:32:30;94706.06;;;13.10;44.14
21182;BME280;10749;46.296;7.524;2023-05-11T01:35:32;94702.13;;;13.06;44.46
21182;BME280;10749;46.296;7.524;2023-05-11T01:38:00;94697.22;;;13.03;45.16
21182;BME280;10749;46.296;7.524;2023-05-11T01:40:27;94696.22;;;13.04;45.96
21182;BME280;10749;46.296;7.524;2023-05-11T01:43:03;94702.72;;;13.02;45.89
21182;BME280;10749;46.296;7.524;2023-05-11T01:45:32;94700.28;;;13.07;45.35
21182;BME280;10749;46.296;7.524;2023-05-11T01:47:59;94689.94;;;13.12;44.84
21182;BME280;10749;46.296;7.524;2023-05-11T01:50:27;94700.28;;;13.07;45.91
21182;BME280;10749;46.296;7.524;2023-05-11T01:52:53;94694.41;;;13.11;45.69
21182;BME280;10749;46.296;7.524;2023-05-11T01:55:21;94697.91;;;13.12;45.76
21182;BME280;10749;46.296;7.524;2023-05-11T01:57:52;94699.13;;;13.16;46.03
21182;BME280;10749;46.296;7.524;2023-05-11T02:00:18;94697.91;;;13.18;45.92
21182;BME280;10749;46.296;7.524;2023-05-11T02:02:44;94700.56;;;13.18;45.98
21182;BME280;10749;46.296;7.524;2023-05-11T02:05:17;94684.84;;;13.17;46.29
21182;BME280;10749;46.296;7.524;2023-05-11T02:07:44;94700.38;;;13.20;45.84
21182;BME280;10749;46.296;7.524;2023-05-11T02:10:11;94696.47;;;13.16;46.43
21182;BME280;10749;46.296;7.524;2023-05-11T02:12:39;94695.84;;;13.14;46.30
21182;BME280;10749;46.296;7.524;2023-05-11T02:15:07;94687.28;;;13.12;46.71
21182;BME280;10749;46.296;7.524;2023-05-11T02:17:34;94688.88;;;13.13;46.63
21182;BME280;10749;46.296;7.524;2023-05-11T02:20:00;94687.88;;;13.14;46.69
21182;BME280;10749;46.296;7.524;2023-05-11T02:22:28;94698.91;;;13.11;46.87
21182;BME280;10749;46.296;7.524;2023-05-11T02:24:55;94694.97;;;13.07;46.89
21182;BME280;10749;46.296;7.524;2023-05-11T02:27:20;94695.44;;;13.10;46.82
21182;BME280;10749;46.296;7.524;2023-05-11T02:29:45;94699.13;;;13.16;46.61
21182;BME280;10749;46.296;7.524;2023-05-11T02:32:15;94690.16;;;13.17;46.08
21182;BME280;10749;46.296;7.524;2023-05-11T02:34:43;94700.56;;;13.18;46.36
21182;BME280;10749;46.296;7.524;2023-05-11T02:37:12;94699.13;;;13.16;46.27
21182;BME280;10749;46.296;7.524;2023-05-11T02:39:40;94702.81;;;13.15;46.94
21182;BME280;10749;46.296;7.524;2023-05-11T02:42:12;94692.81;;;13.17;46.57
21182;BME280;10749;46.296;7.524;2023-05-11T02:44:43;94697.31;;;13.16;46.37
21182;BME280;10749;46.296;7.524;2023-05-11T02:47:11;94693.19;;;13.14;45.74
21182;BME280;10749;46.296;7.524;2023-05-11T02:49:39;94688.88;;;13.13;45.47
21182;BME280;10749;46.296;7.524;2023-05-11T02:52:07;94686.47;;;13.18;45.87
21182;BME280;10749;46.296;7.524;2023-05-11T02:54:32;94687.88;;;13.14;46.31
21182;BME280;10749;46.296;7.524;2023-05-11T02:56:58;94679.91;;;13.14;46.21
21182;BME280;10749;46.296;7.524;2023-05-11T02:59:24;94685.63;;;13.17;46.54
21182;BME280;10749;46.296;7.524;2023-05-11T03:01:49;94683.22;;;13.22;46.02
21182;BME280;10749;46.296;7.524;2023-05-11T03:04:15;94678.50;;;13.18;45.43
21182;BME280;10749;46.296;7.524;2023-05-11T03:06:41;94674.59;;;13.14;45.59
21182;BME280;10749;46.296;7.524;2023-05-11T03:09:06;94685.78;;;13.09;45.66
21182;BME280;10749;46.296;7.524;2023-05-11T03:11:32;94687.28;;;13.12;45.85
21182;BME280;10749;46.296;7.524;2023-05-11T03:13:57;94680.31;;;13.11;45.74
21182;BME280;10749;46.296;7.524;2023-05-11T03:16:23;94685.38;;;13.06;46.16
21182;BME280;10749;46.296;7.524;2023-05-11T03:18:49;94673.72;;;13.07;46.48
21182;BME280;10749;46.296;7.524;2023-05-11T03:21:17;94675.38;;;13.08;46.64
21182;BME280;10749;46.296;7.524;2023-05-11T03:23:45;94675.75;;;13.05;46.54
21182;BME280;10749;46.296;7.524;2023-05-11T03:26:12;94668.84;;;13.10;46.02
21182;BME280;10749;46.296;7.524;2023-05-11T03:28:39;94674.34;;;13.09;46.78
21182;BME280;10749;46.296;7.524;2023-05-11T03:31:07;94669.63;;;13.04;46.89
21182;BME280;10749;46.296;7.524;2023-05-11T03:33:33;94673.53;;;13.08;47.04
21182;BME280;10749;46.296;7.524;2023-05-11T03:35:58;94670.06;;;13.08;46.49
21182;BME280;10749;46.296;7.524;2023-05-11T03:38:26;94661.03;;;13.02;47.17
21182;BME280;10749;46.296;7.524;2023-05-11T03:40:52;94665.53;;;13.02;46.68
21182;BME280;10749;46.296;7.524;2023-05-11T03:43:19;94651.63;;;13.00;46.80
21182;BME280;10749;46.296;7.524;2023-05-11T03:45:47;94651.00;;;12.98;47.01
21182;BME280;10749;46.296;7.524;2023-05-11T03:48:15;94648.75;;;12.94;47.43
21182;BME280;10749;46.296;7.524;2023-05-11T03:50:42;94653.66;;;12.91;47.26
21182;BME280;10749;46.296;7.524;2023-05-11T03:53:07;94657.31;;;12.90;47.00
21182;BME280;10749;46.296;7.524;2023-05-11T03:55:33;94651.16;;;12.83;46.15
21182;BME280;10749;46.296;7.524;2023-05-11T03:57:59;94655.41;;;12.77;46.15
21182;BME280;10749;46.296;7.524;2023-05-11T04:00:25;94653.34;;;12.73;46.29
21182;BME280;10749;46.296;7.524;2023-05-11T04:02:50;94651.09;;;12.70;46.29
21182;BME280;10749;46.296;7.524;2023-05-11T04:05:16;94655.59;;;12.69;46.19
21182;BME280;10749;46.296;7.524;2023-05-11T04:07:42;94655.59;;;12.69;46.07
21182;BME280;10749;46.296;7.524;2023-05-11T04:10:08;94646.84;;;12.75;46.19
21182;BME280;10749;46.296;7.524;2023-05-11T04:12:33;94658.06;;;12.77;45.70
21182;BME280;10749;46.296;7.524;2023-05-11T04:14:58;94649.88;;;12.72;45.69
21182;BME280;10749;46.296;7.524;2023-05-11T04:17:24;94653.16;;;12.74;46.17
21182;BME280;10749;46.296;7.524;2023-05-11T04:19:49;94652.75;;;12.77;46.36
21182;BME280;10749;46.296;7.524;2023-05-11T04:22:14;94647.69;;;12.82;46.28
21182;BME280;10749;46.296;7.524;2023-05-11T04:24:40;94647.91;;;12.87;46.21
21182;BME280;10749;46.296;7.524;2023-05-11T04:27:05;94649.53;;;12.88;46.54
21182;BME280;10749;46.296;7.524;2023-05-11T04:29:31;94641.34;;;12.83;46.58
21182;BME280;10749;46.296;7.524;2023-05-11T04:31:56;94644.19;;;12.82;47.10
21182;BME280;10749;46.296;7.524;2023-05-11T04:34:21;94640.50;;;12.76;47.32
21182;BME280;10749;46.296;7.524;2023-05-11T04:36:47;94639.28;;;12.79;47.00
21182;BME280;10749;46.296;7.524;2023-05-11T04:39:13;94641.72;;;12.80;47.02
21182;BME280;10749;46.296;7.524;2023-05-11T04:41:38;94639.72;;;12.82;46.96
21182;BME280;10749;46.296;7.524;2023-05-11T04:44:03;94633.56;;;12.82;47.61
21182;BME280;10749;46.296;7.524;2023-05-11T04:46:29;94640.13;;;12.86;47.07
21182;BME280;10749;46.296;7.524;2023-05-11T04:48:54;94639.72;;;12.89;47.06
21182;BME280;10749;46.296;7.524;2023-05-11T04:51:19;94649.75;;;12.87;47.76
21182;BME280;10749;46.296;7.524;2023-05-11T04:53:45;94643.22;;;12.89;47.96
21182;BME280;10749;46.296;7.524;2023-05-11T04:56:10;94643.03;;;12.91;47.83
21182;BME280;10749;46.296;7.524;2023-05-11T04:58:36;94651.22;;;12.96;48.07
21182;BME280;10749;46.296;7.524;2023-05-11T05:01:02;94655.31;;;12.99;47.93
21182;BME280;10749;46.296;7.524;2023-05-11T05:03:27;94654.13;;;13.08;48.01
21182;BME280;10749;46.296;7.524;2023-05-11T05:05:52;94659.81;;;13.05;48.36
21182;BME280;10749;46.296;7.524;2023-05-11T05:08:17;94649.03;;;13.13;48.04
21182;BME280;10749;46.296;7.524;2023-05-11T05:10:43;94657.88;;;13.20;48.44
21182;BME280;10749;46.296;7.524;2023-05-11T05:13:08;94654.19;;;13.21;48.39
21182;BME280;10749;46.296;7.524;2023-05-11T05:15:33;94656.22;;;13.25;48.42
21182;BME280;10749;46.296;7.524;2023-05-11T05:17:59;94652.59;;;13.33;48.73
21182;BME280;10749;46.296;7.524;2023-05-11T05:20:24;94662.41;;;13.39;48.80
21182;BME280;10749;46.296;7.524;2023-05-11T05:22:49;94659.97;;;13.44;48.43
21182;BME280;10749;46.296;7.524;2023-05-11T05:25:14;94647.69;;;13.43;48.91
21182;BME280;10749;46.296;7.524;2023-05-11T05:27:40;94653.00;;;13.43;49.00
21182;BME280;10749;46.296;7.524;2023-05-11T05:30:06;94653.41;;;13.47;49.28
21182;BME280;10749;46.296;7.524;2023-05-11T05:32:31;94651.38;;;13.55;49.18
21182;BME280;10749;46.296;7.524;2023-05-11T05:34:57;94651.81;;;13.65;48.97
21182;BME280;10749;46.296;7.524;2023-05-11T05:37:22;94660.03;;;13.70;49.05
21182;BME280;10749;46.296;7.524;2023-05-11T05:39:47;94657.75;;;13.67;49.43
21182;BME280;10749;46.296;7.524;2023-05-11T05:42:12;94658.16;;;13.64;49.43
21182;BME280;10749;46.296;7.524;2023-05-11T05:44:38;94653.47;;;13.73;49.13
21182;BME280;10749;46.296;7.524;2023-05-11T05:47:03;94642.41;;;13.76;49.12
21182;BME280;10749;46.296;7.524;2023-05-11T05:49:29;94654.69;;;13.77;49.11
21182;BME280;10749;46.296;7.524;2023-05-11T05:51:54;94655.28;;;13.79;49.21
21182;BME280;10749;46.296;7.524;2023-05-11T05:54:19;94654.69;;;13.77;49.39
21182;BME280;10749;46.296;7.524;2023-05-11T05:56:45;94648.16;;;13.73;49.58
21182;BME280;10749;46.296;7.524;2023-05-11T05:59:10;94649.78;;;13.67;49.83
21182;BME280;10749;46.296;7.524;2023-05-11T06:01:37;94646.09;;;13.68;49.69
21182;BME280;10749;46.296;7.524;2023-05-11T06:04:08;94651.41;;;13.68;49.78
21182;BME280;10749;46.296;7.524;2023-05-11T06:06:33;94647.75;;;13.69;49.70
21182;BME280;10749;46.296;7.524;2023-05-11T06:08:58;94641.59;;;13.75;49.46
21182;BME280;10749;46.296;7.524;2023-05-11T06:11:24;94647.75;;;13.82;49.35
21182;BME280;10749;46.296;7.524;2023-05-11T06:13:49;94651.00;;;13.84;49.41
21182;BME280;10749;46.296;7.524;2023-05-11T06:16:14;94646.09;;;13.81;49.18
21182;BME280;10749;46.296;7.524;2023-05-11T06:18:39;94640.38;;;13.78;49.29
21182;BME280;10749;46.296;7.524;2023-05-11T06:21:05;94644.47;;;13.80;49.81
21182;BME280;10749;46.296;7.524;2023-05-11T06:23:30;94643.66;;;13.86;49.72
21182;BME280;10749;46.296;7.524;2023-05-11T06:25:55;94635.88;;;13.92;49.44
21182;BME280;10749;46.296;7.524;2023-05-11T06:28:21;94636.28;;;13.88;49.74
21182;BME280;10749;46.296;7.524;2023-05-11T06:30:48;94636.50;;;13.94;48.86
21182;BME280;10749;46.296;7.524;2023-05-11T06:33:13;94639.56;;;13.91;48.75
21182;BME280;10749;46.296;7.524;2023-05-11T06:35:39;94635.06;;;13.91;49.15
21182;BME280;10749;46.296;7.524;2023-05-11T06:38:04;94634.63;;;14.01;49.18
21182;BME280;10749;46.296;7.524;2023-05-11T06:40:29;94639.16;;;14.07;49.15
21182;BME280;10749;46.296;7.524;2023-05-11T06:42:54;94638.94;;;14.08;49.60
21182;BME280;10749;46.296;7.524;2023-05-11T06:45:20;94626.44;;;14.09;49.63
21182;BME280;10749;46.296;7.524;2023-05-11T06:47:45;94626.00;;;14.25;49.76
21182;BME280;10749;46.296;7.524;2023-05-11T06:50:11;94626.84;;;14.32;48.94
21182;BME280;10749;46.296;7.524;2023-05-11T06:52:36;94625.00;;;14.39;49.39
21182;BME280;10749;46.296;7.524;2023-05-11T06:55:02;94631.31;;;14.51;49.44
21182;BME280;10749;46.296;7.524;2023-05-11T06:57:27;94621.06;;;14.55;49.38
21182;BME280;10749;46.296;7.524;2023-05-11T06:59:52;94622.91;;;14.61;49.63
21182;BME280;10749;46.296;7.524;2023-05-11T07:02:17;94620.19;;;14.81;49.32
21182;BME280;10749;46.296;7.524;2023-05-11T07:04:43;94617.66;;;14.92;49.20
21182;BME280;10749;46.296;7.524;2023-05-11T07:07:08;94612.69;;;15.09;49.26
21182;BME280;10749;46.296;7.524;2023-05-11T07:09:36;94609.00;;;15.03;48.43
21182;BME280;10749;46.296;7.524;2023-05-11T07:12:01;94620.91;;;15.01;48.68
21182;BME280;10749;46.296;7.524;2023-05-11T07:14:26;94614.75;;;15.00;48.72
21182;BME280;10749;46.296;7.524;2023-05-11T07:16:52;94616.84;;;14.98;48.80
21182;BME280;10749;46.296;7.524;2023-05-11T07:19:17;94617.84;;;14.97;48.71
21182;BME280;10749;46.296;7.524;2023-05-11T07:21:42;94608.22;;;15.03;48.48
21182;BME280;10749;46.296;7.524;2023-05-11T07:24:08;94613.09;;;15.06;48.73
21182;BME280;10749;46.296;7.524;2023-05-11T07:26:33;94607.78;;;14.99;48.72
21182;BME280;10749;46.296;7.524;2023-05-11T07:28:58;94615.78;;;15.06;49.18
21182;BME280;10749;46.296;7.524;2023-05-11T07:31:24;94610.19;;;15.14;48.35
21182;BME280;10749;46.296;7.524;2023-05-11T07:33:49;94614.25;;;15.23;48.56
21182;BME280;10749;46.296;7.524;2023-05-11T07:36:14;94610.53;;;15.24;48.89
21182;BME280;10749;46.296;7.524;2023-05-11T07:38:40;94605.44;;;15.22;48.54
21182;BME280;10749;46.296;7.524;2023-05-11T07:41:05;94613.81;;;15.26;48.89
21182;BME280;10749;46.296;7.524;2023-05-11T07:43:31;94607.66;;;15.32;48.74
21182;BME280;10749;46.296;7.524;2023-05-11T07:45:56;94601.50;;;15.25;48.44
21182;BME280;10749;46.296;7.524;2023-05-11T07:48:22;94603.22;;;15.13;48.25
21182;BME280;10749;46.296;7.524;2023-05-11T07:50:47;94596.66;;;15.15;48.72
21182;BME280;10749;46.296;7.524;2023-05-11T07:53:14;94595.03;;;15.14;48.50
21182;BME280;10749;46.296;7.524;2023-05-11T07:55:39;94586.38;;;15.19;48.61
21182;BME280;10749;46.296;7.524;2023-05-11T07:58:04;94589.47;;;15.16;48.38
21182;BME280;10749;46.296;7.524;2023-05-11T08:00:30;94586.88;;;15.03;47.32
21182;BME280;10749;46.296;7.524;2023-05-11T08:02:55;94592.47;;;14.88;47.94
21182;BME280;10749;46.296;7.524;2023-05-11T08:05:20;94596.34;;;14.92;48.11
21182;BME280;10749;46.296;7.524;2023-05-11T08:07:46;94590.56;;;15.02;48.26
21182;BME280;10749;46.296;7.524;2023-05-11T08:10:11;94593.00;;;15.10;47.68
21182;BME280;10749;46.296;7.524;2023-05-11T08:12:37;94590.91;;;15.18;48.30
21182;BME280;10749;46.296;7.524;2023-05-11T08:15:03;94585.94;;;15.22;48.29
21182;BME280;10749;46.296;7.524;2023-05-11T08:17:29;94582.84;;;15.25;48.49
21182;BME280;10749;46.296;7.524;2023-05-11T08:19:54;94585.22;;;15.40;48.46
21182;BME280;10749;46.296;7.524;2023-05-11T08:22:20;94575.03;;;15.61;48.28
21182;BME280;10749;46.296;7.524;2023-05-11T08:24:46;94575.03;;;15.61;48.24
21182;BME280;10749;46.296;7.524;2023-05-11T08:27:11;94573.53;;;15.72;47.94
21182;BME280;10749;46.296;7.524;2023-05-11T08:29:36;94567.59;;;15.70;47.78
21182;BME280;10749;46.296;7.524;2023-05-11T08:32:02;94565.06;;;15.82;47.73
21182;BME280;10749;46.296;7.524;2023-05-11T08:34:27;94566.56;;;15.96;47.90
21182;BME280;10749;46.296;7.524;2023-05-11T08:36:52;94564.78;;;16.08;47.74
21182;BME280;10749;46.296;7.524;2023-05-11T08:39:20;94562.22;;;16.20;48.05
21182;BME280;10749;46.296;7.524;2023-05-11T08:41:45;94563.47;;;16.17;47.64
21182;BME280;10749;46.296;7.524;2023-05-11T08:44:13;94558.00;;;16.30;47.37
21182;BME280;10749;46.296;7.524;2023-05-11T08:46:41;94548.88;;;16.38;47.72
21182;BME280;10749;46.296;7.524;2023-05-11T08:49:09;94553.13;;;16.27;47.28
21182;BME280;10749;46.296;7.524;2023-05-11T08:51:35;94550.00;;;16.30;47.56
21182;BME280;10749;46.296;7.524;2023-05-11T08:54:00;94543.63;;;16.49;47.20
21182;BME280;10749;46.296;7.524;2023-05-11T08:56:28;94535.47;;;16.63;47.53
21182;BME280;10749;46.296;7.524;2023-05-11T08:58:54;94533.84;;;16.61;46.97
21182;BME280;10749;46.296;7.524;2023-05-11T09:01:23;94534.59;;;16.69;47.04
21182;BME280;10749;46.296;7.524;2023-05-11T09:03:52;94530.06;;;16.69;47.03
21182;BME280;10749;46.296;7.524;2023-05-11T09:06:18;94529.69;;;16.66;47.07
21182;BME280;10749;46.296;7.524;2023-05-11T09:08:45;94526.44;;;16.64;46.54
21182;BME280;10749;46.296;7.524;2023-05-11T09:11:10;94526.28;;;16.77;46.46
21182;BME280;10749;46.296;7.524;2023-05-11T09:13:36;94525.53;;;16.70;46.07
21182;BME280;10749;46.296;7.524;2023-05-11T09:16:01;94518.56;;;16.69;45.45
21182;BME280;10749;46.296;7.524;2023-05-11T09:18:27;94517.28;;;16.71;45.89
21182;BME280;10749;46.296;7.524;2023-05-11T09:20:52;94511.59;;;16.68;45.21
21182;BME280;10749;46.296;7.524;2023-05-11T09:23:18;94508.78;;;16.63;44.81
21182;BME280;10749;46.296;7.524;2023-05-11T09:25:48;94517.38;;;16.65;44.70
21182;BME280;10749;46.296;7.524;2023-05-11T09:28:13;94505.22;;;16.69;44.68
21182;BME280;10749;46.296;7.524;2023-05-11T09:30:41;94502.25;;;16.58;44.12
21182;BME280;10749;46.296;7.524;2023-05-11T09:33:06;94505.78;;;16.71;44.30
21182;BME280;10749;46.296;7.524;2023-05-11T09:35:33;94499.25;;;16.67;44.21
21182;BME280;10749;46.296;7.524;2023-05-11T09:38:08;94494.47;;;16.87;44.61
21182;BME280;10749;46.296;7.524;2023-05-11T09:40:34;94492.47;;;17.12;44.86
21182;BME280;10749;46.296;7.524;2023-05-11T09:43:02;94490.00;;;17.11;44.84
21182;BME280;10749;46.296;7.524;2023-05-11T09:45:40;94488.13;;;16.99;44.88
21182;BME280;10749;46.296;7.524;2023-05-11T09:48:22;94484.63;;;16.99;45.03
21182;BME280;10749;46.296;7.524;2023-05-11T09:50:48;94479.44;;;17.04;45.29
21182;BME280;10749;46.296;7.524;2023-05-11T09:53:14;94474.34;;;17.14;45.18
21182;BME280;10749;46.296;7.524;2023-05-11T09:55:51;94472.88;;;17.41;45.01
21182;BME280;10749;46.296;7.524;2023-05-11T09:58:17;94479.28;;;17.52;44.90
21182;BME280;10749;46.296;7.524;2023-05-11T10:00:52;94476.09;;;17.62;45.15
21182;BME280;10749;46.296;7.524;2023-05-11T10:03:20;94477.78;;;17.44;44.46
21182;BME280;10749;46.296;7.524;2023-05-11T10:05:56;94463.56;;;17.44;44.76
21182;BME280;10749;46.296;7.524;2023-05-11T10:08:29;94475.09;;;17.44;44.50
21182;BME280;10749;46.296;7.524;2023-05-11T10:10:56;94470.22;;;17.41;44.40
21182;BME280;10749;46.296;7.524;2023-05-11T10:13:22;94468.94;;;17.44;44.53
21182;BME280;10749;46.296;7.524;2023-05-11T10:15:50;94465.44;;;17.43;44.00
21182;BME280;10749;46.296;7.524;2023-05-11T10:18:18;94473.47;;;17.43;44.00
21182;BME280;10749;46.296;7.524;2023-05-11T10:20:44;94471.13;;;17.35;44.13
21182;BME280;10749;46.296;7.524;2023-05-11T10:23:10;94464.16;;;17.34;44.11
21182;BME280;10749;46.296;7.524;2023-05-11T10:25:39;94474.03;;;17.34;44.15
21182;BME280;10749;46.296;7.524;2023-05-11T10:28:04;94465.34;;;17.38;44.12
21182;BME280;10749;46.296;7.524;2023-05-11T10:30:32;94462.06;;;17.36;44.32
21182;BME280;10749;46.296;7.524;2023-05-11T10:32:59;94472.06;;;17.29;44.29
21182;BME280;10749;46.296;7.524;2023-05-11T10:35:25;94469.03;;;17.37;43.92
21182;BME280;10749;46.296;7.524;2023-05-11T10:37:51;94460.00;;;17.50;43.91
21182;BME280;10749;46.296;7.524;2023-05-11T10:40:16;94453.13;;;17.54;43.99
21182;BME280;10749;46.296;7.524;2023-05-11T10:45:50;94443.97;;;17.85;43.57
21182;BME280;10749;46.296;7.524;2023-05-11T10:48:36;94433.34;;;18.02;42.84
21182;BME280;10749;46.296;7.524;2023-05-11T10:51:31;94427.66;;;17.98;42.74
21182;BME280;10749;46.296;7.524;2023-05-11T11:02:05;94417.09;;;17.91;42.21
21182;BME280;10749;46.296;7.524;2023-05-11T11:05:01;94416.50;;;17.78;41.58
21182;BME280;10749;46.296;7.524;2023-05-11T11:07:58;94410.94;;;17.68;41.63
21182;BME280;10749;46.296;7.524;2023-05-11T11:10:36;94409.78;;;17.64;41.63
21182;BME280;10749;46.296;7.524;2023-05-11T11:13:06;94404.16;;;17.77;41.84
21182;BME280;10749;46.296;7.524;2023-05-11T11:18:31;94399.31;;;18.25;41.66
21182;BME280;10749;46.296;7.524;2023-05-11T11:21:00;94401.00;;;18.55;41.53
21182;BME280;10749;46.296;7.524;2023-05-11T11:26:04;94399.38;;;18.82;40.18
21182;BME280;10749;46.296;7.524;2023-05-11T11:31:31;94398.44;;;19.21;40.36
21182;BME280;10749;46.296;7.524;2023-05-11T11:36:59;94393.00;;;19.16;40.06
21182;BME280;10749;46.296;7.524;2023-05-11T11:44:34;94369.53;;;18.78;39.95
21182;BME280;10749;46.296;7.524;2023-05-11T11:47:22;94377.69;;;18.83;40.03
21182;BME280;10749;46.296;7.524;2023-05-11T11:49:53;94377.88;;;19.10;39.50
21182;BME280;10749;46.296;7.524;2023-05-11T11:54:50;94367.47;;;19.64;39.98
21182;BME280;10749;46.296;7.524;2023-05-11T11:59:54;94363.41;;;20.00;39.79
21182;BME280;10749;46.296;7.524;2023-05-11T12:02:21;94348.16;;;20.05;39.18
21182;BME280;10749;46.296;7.524;2023-05-11T12:04:59;94351.41;;;20.07;38.97
21182;BME280;10749;46.296;7.524;2023-05-11T12:07:25;94354.53;;;19.99;38.95
21182;BME280;10749;46.296;7.524;2023-05-11T12:09:51;94348.66;;;20.02;39.04
21182;BME280;10749;46.296;7.524;2023-05-11T12:12:18;94341.34;;;19.98;38.43
21182;BME280;10749;46.296;7.524;2023-05-11T12:14:45;94346.66;;;20.14;38.57
21182;BME280;10749;46.296;7.524;2023-05-11T12:17:14;94335.22;;;20.02;37.99
21182;BME280;10749;46.296;7.524;2023-05-11T12:19:44;94337.09;;;20.23;38.45
21182;BME280;10749;46.296;7.524;2023-05-11T12:22:10;94328.69;;;20.37;38.60
21182;BME280;10749;46.296;7.524;2023-05-11T12:24:36;94336.16;;;20.35;37.91
21182;BME280;10749;46.296;7.524;2023-05-11T12:27:03;94325.34;;;20.30;37.72
21182;BME280;10749;46.296;7.524;2023-05-11T12:29:29;94328.38;;;20.33;38.00
21182;BME280;10749;46.296;7.524;2023-05-11T12:31:55;94327.25;;;20.29;37.50
21182;BME280;10749;46.296;7.524;2023-05-11T12:34:21;94313.44;;;20.20;37.31
21182;BME280;10749;46.296;7.524;2023-05-11T12:36:49;94308.44;;;20.07;37.15
21182;BME280;10749;46.296;7.524;2023-05-11T12:39:25;94310.53;;;20.05;37.36
21182;BME280;10749;46.296;7.524;2023-05-11T12:41:53;94306.13;;;19.94;37.31
21182;BME280;10749;46.296;7.524;2023-05-11T12:44:20;94307.00;;;20.00;37.23
21182;BME280;10749;46.296;7.524;2023-05-11T12:46:47;94296.66;;;20.13;37.64
21182;BME280;10749;46.296;7.524;2023-05-11T12:49:17;94296.78;;;20.23;37.72
21182;BME280;10749;46.296;7.524;2023-05-11T12:54:08;94299.53;;;20.28;37.90
21182;BME280;10749;46.296;7.524;2023-05-11T12:56:49;94290.81;;;20.16;37.36
21182;BME280;10749;46.296;7.524;2023-05-11T12:59:31;94290.03;;;20.21;36.86
21182;BME280;10749;46.296;7.524;2023-05-11T13:02:26;94288.56;;;20.30;37.20
21182;BME280;10749;46.296;7.524;2023-05-11T13:04:51;94286.34;;;20.27;36.75
21182;BME280;10749;46.296;7.524;2023-05-11T13:07:25;94284.88;;;20.36;37.22
21182;BME280;10749;46.296;7.524;2023-05-11T13:09:59;94293.16;;;20.35;36.79
21182;BME280;10749;46.296;7.524;2023-05-11T13:12:25;94287.81;;;20.35;36.08
21182;BME280;10749;46.296;7.524;2023-05-11T13:15:08;94275.94;;;20.31;35.85
21182;BME280;10749;46.296;7.524;2023-05-11T13:17:37;94281.38;;;20.36;35.38
21182;BME280;10749;46.296;7.524;2023-05-11T13:20:25;94264.56;;;20.23;35.69
21182;BME280;10749;46.296;7.524;2023-05-11T13:23:09;94270.22;;;20.49;36.09
21182;BME280;10749;46.296;7.524;2023-05-11T13:25:50;94269.63;;;20.73;36.21
21182;BME280;10749;46.296;7.524;2023-05-11T13:28:19;94257.94;;;20.90;35.71
21182;BME280;10749;46.296;7.524;2023-05-11T13:30:45;94276.81;;;21.00;35.40
21182;BME280;10749;46.296;7.524;2023-05-11T13:33:11;94265.28;;;20.99;35.00
21182;BME280;10749;46.296;7.524;2023-05-11T13:35:40;94251.03;;;20.99;35.57
21182;BME280;10749;46.296;7.524;2023-05-11T13:38:08;94261.53;;;21.05;35.11
21182;BME280;10749;46.296;7.524;2023-05-11T13:40:34;94259.50;;;21.17;34.90
21182;BME280;10749;46.296;7.524;2023-05-11T13:43:00;94241.56;;;21.28;34.91